Time;durP1;ratioP1;P1;durP2;ratioP2;P2;SDS_P1;SDS_P2;PMS_P1;PMS_P2;Temp;Humidity;BMP_temperature;BMP_pressure;BME280_temperature;BME280_humidity;BME280_pressure;Samples;Min_cycle;Max_cycle;Signal;HPM_P1;HPM_P2
2023/09/17 00:01:34;;;;;;;8.35;6.00;;;;;;;;;;5104444;28;20680;-59
2023/09/17 00:04:01;;;;;;;7.43;5.45;;;;;;;;;;5103180;28;20776;-57
2023/09/17 00:06:27;;;;;;;7.57;5.43;;;;;;;;;;5106970;28;20054;-58
2023/09/17 00:08:53;;;;;;;9.98;6.43;;;;;;;;;;5106918;28;20039;-58
2023/09/17 00:11:19;;;;;;;7.47;6.25;;;;;;;;;;5106532;28;20031;-58
2023/09/17 00:13:45;;;;;;;11.15;5.90;;;;;;;;;;5104273;28;20043;-58
2023/09/17 00:16:11;;;;;;;8.50;5.90;;;;;;;;;;5105743;28;20047;-58
2023/09/17 00:18:38;;;;;;;7.53;5.90;;;;;;;;;;5088583;28;20043;-58
2023/09/17 00:21:06;;;;;;;6.20;5.60;;;;;;;;;;5105376;28;20043;-57
2023/09/17 00:23:32;;;;;;;8.13;6.20;;;;;;;;;;5105165;28;20032;-58
2023/09/17 00:25:58;;;;;;;9.43;5.97;;;;;;;;;;5104732;28;21041;-58
2023/09/17 00:28:24;;;;;;;8.55;6.28;;;;;;;;;;5105386;28;20035;-58
2023/09/17 00:30:50;;;;;;;6.85;5.65;;;;;;;;;;5104003;28;20032;-58
2023/09/17 00:33:16;;;;;;;6.78;5.80;;;;;;;;;;5067906;28;20393;-60
2023/09/17 00:35:43;;;;;;;7.60;5.53;;;;;;;;;;5084759;28;20036;-60
2023/09/17 00:38:09;;;;;;;6.88;5.65;;;;;;;;;;5104128;28;20038;-60
2023/09/17 00:40:37;;;;;;;7.00;5.57;;;;;;;;;;5104911;28;20047;-60
2023/09/17 00:43:03;;;;;;;6.05;5.22;;;;;;;;;;5103213;28;20024;-60
2023/09/17 00:45:30;;;;;;;9.32;5.80;;;;;;;;;;5102552;28;20254;-60
2023/09/17 00:47:57;;;;;;;6.60;5.35;;;;;;;;;;5101569;28;20055;-60
2023/09/17 00:50:23;;;;;;;5.85;5.10;;;;;;;;;;5107094;28;20031;-60
2023/09/17 00:52:50;;;;;;;7.60;5.15;;;;;;;;;;5086763;28;20028;-60
2023/09/17 00:55:16;;;;;;;6.28;4.82;;;;;;;;;;5084511;28;20032;-60
2023/09/17 00:57:45;;;;;;;8.30;5.00;;;;;;;;;;5102255;28;20035;-60
2023/09/17 01:00:14;;;;;;;7.07;4.88;;;;;;;;;;5100078;28;20031;-60
2023/09/17 01:02:42;;;;;;;6.60;4.72;;;;;;;;;;5103412;28;20027;-60
2023/09/17 01:05:08;;;;;;;5.97;5.30;;;;;;;;;;5079751;28;20395;-59
2023/09/17 01:07:35;;;;;;;5.25;4.40;;;;;;;;;;5091328;28;20035;-60
2023/09/17 01:10:01;;;;;;;6.13;5.50;;;;;;;;;;5086997;28;20042;-59
2023/09/17 01:12:28;;;;;;;6.75;5.30;;;;;;;;;;5104200;28;20055;-59
2023/09/17 01:14:54;;;;;;;7.45;5.18;;;;;;;;;;5086285;28;20039;-58
2023/09/17 01:17:22;;;;;;;7.38;5.22;;;;;;;;;;5088512;28;20031;-60
2023/09/17 01:19:48;;;;;;;6.70;5.10;;;;;;;;;;5086209;28;20047;-59
2023/09/17 01:22:30;;;;;;;7.47;5.07;;;;;;;;;;5086756;28;20031;-60
2023/09/17 01:25:36;;;;;;;5.95;4.88;;;;;;;;;;5085871;28;20054;-60
2023/09/17 01:28:03;;;;;;;6.80;5.32;;;;;;;;;;5105113;28;20701;-59
2023/09/17 01:30:29;;;;;;;5.78;5.00;;;;;;;;;;5082756;28;20032;-59
2023/09/17 01:32:55;;;;;;;6.15;5.15;;;;;;;;;;5104704;28;20035;-60
2023/09/17 01:35:21;;;;;;;8.48;4.85;;;;;;;;;;5084790;28;20040;-59
2023/09/17 01:37:54;;;;;;;5.88;5.15;;;;;;;;;;5104032;28;20415;-59
2023/09/17 01:40:21;;;;;;;5.75;5.15;;;;;;;;;;5085100;28;20036;-59
2023/09/17 01:42:49;;;;;;;8.15;5.53;;;;;;;;;;5085367;28;20058;-60
2023/09/17 01:45:16;;;;;;;8.20;5.78;;;;;;;;;;5083263;28;20031;-59
2023/09/17 01:47:45;;;;;;;6.80;5.53;;;;;;;;;;5081158;28;20043;-59
2023/09/17 01:50:15;;;;;;;7.10;5.22;;;;;;;;;;5101497;28;20033;-59
2023/09/17 01:52:44;;;;;;;6.75;4.97;;;;;;;;;;5103031;28;20048;-59
2023/09/17 01:55:12;;;;;;;7.65;5.43;;;;;;;;;;5084383;28;20031;-60
2023/09/17 01:57:39;;;;;;;6.18;5.13;;;;;;;;;;5104633;28;20042;-60
2023/09/17 02:00:16;;;;;;;8.25;5.35;;;;;;;;;;5081427;28;20035;-60
2023/09/17 02:02:46;;;;;;;6.20;5.32;;;;;;;;;;5085446;28;20058;-60
2023/09/17 02:05:16;;;;;;;8.68;5.68;;;;;;;;;;5088525;28;20058;-59
2023/09/17 02:07:43;;;;;;;6.50;5.45;;;;;;;;;;5104752;28;20653;-59
2023/09/17 02:10:10;;;;;;;6.13;5.15;;;;;;;;;;5087663;28;20031;-60
2023/09/17 02:12:37;;;;;;;6.18;5.13;;;;;;;;;;5105107;28;20043;-59
2023/09/17 02:15:03;;;;;;;6.28;5.30;;;;;;;;;;5084943;28;20042;-59
2023/09/17 02:17:30;;;;;;;7.18;5.68;;;;;;;;;;5088904;28;20031;-59
2023/09/17 02:19:57;;;;;;;8.73;5.50;;;;;;;;;;5090264;28;20036;-59
2023/09/17 02:22:23;;;;;;;7.47;5.68;;;;;;;;;;5072408;28;20028;-60
2023/09/17 02:24:49;;;;;;;6.40;5.57;;;;;;;;;;5105676;28;20062;-59
2023/09/17 02:27:16;;;;;;;8.18;5.80;;;;;;;;;;5080730;28;20032;-59
2023/09/17 02:29:43;;;;;;;6.78;5.75;;;;;;;;;;5107061;28;20046;-59
2023/09/17 02:32:13;;;;;;;7.55;5.20;;;;;;;;;;5108763;28;20544;-60
2023/09/17 02:34:39;;;;;;;;;;;;;;;;;;5091020;28;20038;-59
2023/09/17 02:37:05;;;;;;;7.30;5.45;;;;;;;;;;5088840;28;19915;-60
2023/09/17 02:39:31;;;;;;;9.65;6.18;;;;;;;;;;5106389;28;20048;-59
2023/09/17 02:41:58;;;;;;;8.13;5.78;;;;;;;;;;5107830;28;20036;-59
2023/09/17 02:44:25;;;;;;;6.53;5.55;;;;;;;;;;5106959;28;20039;-60
2023/09/17 02:46:51;;;;;;;7.25;5.85;;;;;;;;;;5106026;28;20031;-59
2023/09/17 02:49:21;;;;;;;10.32;5.85;;;;;;;;;;5086548;28;20039;-59
2023/09/17 02:51:51;;;;;;;9.00;6.13;;;;;;;;;;5089617;28;20122;-59
2023/09/17 02:54:17;;;;;;;;;;;;;;;;;;5095822;28;20054;-60
2023/09/17 02:56:43;;;;;;;9.50;6.13;;;;;;;;;;5091000;28;20014;-60
2023/09/17 02:59:09;;;;;;;7.40;5.72;;;;;;;;;;5104775;28;20034;-59
2023/09/17 03:01:35;;;;;;;9.38;5.80;;;;;;;;;;5090440;28;20043;-59
2023/09/17 03:04:02;;;;;;;7.45;5.65;;;;;;;;;;5088448;28;20044;-59
2023/09/17 03:06:30;;;;;;;7.90;5.82;;;;;;;;;;5091377;28;20379;-60
2023/09/17 03:08:57;;;;;;;8.00;5.60;;;;;;;;;;5086895;28;20114;-59
2023/09/17 03:11:26;;;;;;;7.07;5.32;;;;;;;;;;5107749;28;20039;-60
2023/09/17 03:13:55;;;;;;;8.43;5.68;;;;;;;;;;5087362;28;20091;-59
2023/09/17 03:16:21;;;;;;;7.20;5.85;;;;;;;;;;5089432;28;20040;-59
2023/09/17 03:18:48;;;;;;;7.35;5.95;;;;;;;;;;5085298;28;20534;-60
2023/09/17 03:21:14;;;;;;;7.38;5.72;;;;;;;;;;5087942;28;20504;-59
2023/09/17 03:23:40;;;;;;;7.60;5.30;;;;;;;;;;5086110;28;20403;-59
2023/09/17 03:26:09;;;;;;;7.65;5.70;;;;;;;;;;5073234;28;20032;-59
2023/09/17 03:28:35;;;;;;;7.38;5.57;;;;;;;;;;5104941;28;20521;-59
2023/09/17 03:31:04;;;;;;;8.30;5.80;;;;;;;;;;5106715;28;20035;-60
2023/09/17 03:33:30;;;;;;;7.78;5.95;;;;;;;;;;5073346;28;20522;-59
2023/09/17 03:36:00;;;;;;;8.82;5.78;;;;;;;;;;5089301;28;20038;-59
2023/09/17 03:38:28;;;;;;;8.02;5.88;;;;;;;;;;5071768;28;20039;-59
2023/09/17 03:40:55;;;;;;;7.07;5.65;;;;;;;;;;5085512;28;20051;-59
2023/09/17 03:43:22;;;;;;;7.75;5.60;;;;;;;;;;5087060;28;20043;-59
2023/09/17 03:45:51;;;;;;;6.90;5.10;;;;;;;;;;5089302;28;20032;-59
2023/09/17 03:48:17;;;;;;;7.57;5.53;;;;;;;;;;5107631;28;20036;-58
2023/09/17 03:50:44;;;;;;;7.82;5.65;;;;;;;;;;5087355;28;20051;-58
2023/09/17 03:53:10;;;;;;;8.50;5.72;;;;;;;;;;5083535;28;20046;-59
2023/09/17 03:55:37;;;;;;;8.73;5.45;;;;;;;;;;5090037;28;20047;-59
2023/09/17 03:58:04;;;;;;;8.20;5.60;;;;;;;;;;5071565;28;20046;-58
2023/09/17 04:00:36;;;;;;;7.53;5.72;;;;;;;;;;5090147;28;20027;-59
2023/09/17 04:03:04;;;;;;;8.32;5.47;;;;;;;;;;5106608;28;20457;-59
2023/09/17 04:05:31;;;;;;;7.72;5.57;;;;;;;;;;5087741;28;20497;-58
2023/09/17 04:07:57;;;;;;;9.02;5.25;;;;;;;;;;5087084;28;20035;-59
2023/09/17 04:10:24;;;;;;;8.80;5.20;;;;;;;;;;5108502;28;20043;-59
2023/09/17 04:12:50;;;;;;;6.40;5.07;;;;;;;;;;5105469;28;20066;-59
2023/09/17 04:15:18;;;;;;;7.65;5.30;;;;;;;;;;5107342;28;20031;-60
2023/09/17 04:17:52;;;;;;;6.43;5.17;;;;;;;;;;5069958;28;20427;-59
2023/09/17 04:20:19;;;;;;;6.95;5.30;;;;;;;;;;5100374;28;20286;-60
2023/09/17 04:22:48;;;;;;;8.27;6.22;;;;;;;;;;5087476;28;20043;-59
2023/09/17 04:25:17;;;;;;;8.18;5.13;;;;;;;;;;5084744;28;20501;-60
2023/09/17 04:27:44;;;;;;;8.70;5.18;;;;;;;;;;5087162;28;20044;-59
2023/09/17 04:30:16;;;;;;;7.00;5.20;;;;;;;;;;5071942;28;20040;-60
2023/09/17 04:32:44;;;;;;;7.88;5.55;;;;;;;;;;5089599;28;20031;-59
2023/09/17 04:35:18;;;;;;;6.53;5.20;;;;;;;;;;5091237;28;20052;-60
2023/09/17 04:37:47;;;;;;;7.68;5.18;;;;;;;;;;5082985;28;20110;-59
2023/09/17 04:40:14;;;;;;;7.20;4.90;;;;;;;;;;5086222;28;20055;-60
2023/09/17 04:42:43;;;;;;;7.30;5.20;;;;;;;;;;5084634;28;20043;-60
2023/09/17 04:45:12;;;;;;;6.50;5.10;;;;;;;;;;5085429;28;20051;-59
2023/09/17 04:47:39;;;;;;;7.70;5.15;;;;;;;;;;5090049;28;20046;-59
2023/09/17 04:50:08;;;;;;;9.63;5.10;;;;;;;;;;5090431;28;20043;-59
2023/09/17 04:52:36;;;;;;;8.18;5.05;;;;;;;;;;5086530;28;20502;-59
2023/09/17 04:55:03;;;;;;;10.93;6.22;;;;;;;;;;5071910;28;20063;-59
2023/09/17 04:57:30;;;;;;;7.40;4.88;;;;;;;;;;5089326;28;20506;-59
2023/09/17 04:59:56;;;;;;;7.50;4.68;;;;;;;;;;5088859;28;20120;-59
2023/09/17 05:02:22;;;;;;;7.32;5.03;;;;;;;;;;5087072;28;20028;-59
2023/09/17 05:04:48;;;;;;;8.32;5.18;;;;;;;;;;5085523;28;20030;-60
2023/09/17 05:07:14;;;;;;;7.88;5.10;;;;;;;;;;5106779;28;20027;-59
2023/09/17 05:09:41;;;;;;;10.07;4.60;;;;;;;;;;5068809;28;20035;-59
2023/09/17 05:12:08;;;;;;;7.28;5.10;;;;;;;;;;5086801;28;20046;-59
2023/09/17 05:14:35;;;;;;;7.85;4.88;;;;;;;;;;5066854;28;20487;-59
2023/09/17 05:17:02;;;;;;;6.47;4.90;;;;;;;;;;5085421;28;20043;-59
2023/09/17 05:19:28;;;;;;;8.32;4.97;;;;;;;;;;5105636;28;20035;-59
2023/09/17 05:21:54;;;;;;;6.57;5.07;;;;;;;;;;5085187;28;20414;-59
2023/09/17 05:24:21;;;;;;;8.40;5.13;;;;;;;;;;5083387;28;20675;-59
2023/09/17 05:26:47;;;;;;;8.85;4.53;;;;;;;;;;5076772;28;20058;-59
2023/09/17 05:29:16;;;;;;;5.93;4.50;;;;;;;;;;5086102;28;20059;-59
2023/09/17 05:31:44;;;;;;;6.20;4.93;;;;;;;;;;5087436;28;20039;-59
2023/09/17 05:34:13;;;;;;;6.15;4.70;;;;;;;;;;5083735;28;20035;-58
2023/09/17 05:36:39;;;;;;;7.15;4.53;;;;;;;;;;5086491;28;20036;-58
2023/09/17 05:39:06;;;;;;;7.78;5.05;;;;;;;;;;5103949;28;20545;-59
2023/09/17 05:41:32;;;;;;;7.63;4.57;;;;;;;;;;5081017;28;20040;-58
2023/09/17 05:44:00;;;;;;;6.22;4.47;;;;;;;;;;5088665;28;20429;-59
2023/09/17 05:46:27;;;;;;;5.90;4.45;;;;;;;;;;5089189;28;20153;-59
2023/09/17 05:48:54;;;;;;;7.00;4.50;;;;;;;;;;5065777;28;20056;-59
2023/09/17 05:51:20;;;;;;;8.40;4.80;;;;;;;;;;5093151;28;20027;-59
2023/09/17 05:53:46;;;;;;;8.48;4.93;;;;;;;;;;5088074;28;20032;-59
2023/09/17 05:56:12;;;;;;;7.70;4.47;;;;;;;;;;5084471;28;20048;-59
2023/09/17 05:58:38;;;;;;;7.75;4.65;;;;;;;;;;5074455;28;20036;-59
2023/09/17 06:01:07;;;;;;;6.35;4.40;;;;;;;;;;5090011;28;20031;-59
2023/09/17 06:03:33;;;;;;;16.63;5.00;;;;;;;;;;5094948;28;20043;-59
2023/09/17 06:05:59;;;;;;;5.68;4.03;;;;;;;;;;5088925;28;20055;-59
2023/09/17 06:08:28;;;;;;;6.25;4.55;;;;;;;;;;5096806;28;20031;-58
2023/09/17 06:10:55;;;;;;;6.60;5.10;;;;;;;;;;5090713;28;20028;-59
2023/09/17 06:13:22;;;;;;;8.35;4.78;;;;;;;;;;5085951;28;20522;-58
2023/09/17 06:15:49;;;;;;;8.93;4.50;;;;;;;;;;5088814;28;20629;-59
2023/09/17 06:18:17;;;;;;;9.30;5.40;;;;;;;;;;5106183;27;20036;-58
2023/09/17 06:20:43;;;;;;;9.38;4.80;;;;;;;;;;5090829;28;20035;-57
2023/09/17 06:23:09;;;;;;;7.80;4.65;;;;;;;;;;5104780;28;20417;-59
2023/09/17 06:25:35;;;;;;;7.85;4.88;;;;;;;;;;5105946;28;20145;-58
2023/09/17 06:28:03;;;;;;;7.63;4.97;;;;;;;;;;5086662;28;20690;-59
2023/09/17 06:30:29;;;;;;;6.03;4.55;;;;;;;;;;5090256;28;20100;-58
2023/09/17 06:32:55;;;;;;;7.30;4.97;;;;;;;;;;5091674;28;20036;-58
2023/09/17 06:35:22;;;;;;;8.60;5.35;;;;;;;;;;5084323;28;20047;-58
2023/09/17 06:37:49;;;;;;;7.43;5.57;;;;;;;;;;5091926;28;20036;-58
2023/09/17 06:40:17;;;;;;;7.65;5.00;;;;;;;;;;5090524;28;20038;-58
2023/09/17 06:42:43;;;;;;;7.82;4.68;;;;;;;;;;5092027;28;20054;-58
2023/09/17 06:45:09;;;;;;;7.45;4.90;;;;;;;;;;5107125;28;20032;-58
2023/09/17 06:47:36;;;;;;;10.32;5.22;;;;;;;;;;5100767;28;20097;-58
2023/09/17 06:50:02;;;;;;;8.07;5.10;;;;;;;;;;5108219;28;20063;-59
2023/09/17 06:52:28;;;;;;;8.77;4.72;;;;;;;;;;5109550;28;20032;-58
2023/09/17 06:54:54;;;;;;;11.07;5.20;;;;;;;;;;5103052;28;20043;-58
2023/09/17 06:57:20;;;;;;;7.03;5.47;;;;;;;;;;5109394;28;20047;-59
2023/09/17 06:59:46;;;;;;;9.10;5.70;;;;;;;;;;5106639;28;20537;-59
2023/09/17 07:02:12;;;;;;;9.95;6.43;;;;;;;;;;5102210;28;20031;-58
2023/09/17 07:04:39;;;;;;;10.20;6.05;;;;;;;;;;5103697;28;20055;-59
2023/09/17 07:07:05;;;;;;;13.68;8.75;;;;;;;;;;5106588;28;20051;-58
2023/09/17 07:09:32;;;;;;;9.50;7.03;;;;;;;;;;5106828;28;20061;-58
2023/09/17 07:11:58;;;;;;;6.55;4.97;;;;;;;;;;5106120;28;20039;-58
2023/09/17 07:14:24;;;;;;;7.50;6.32;;;;;;;;;;5105537;28;20038;-58
2023/09/17 07:16:50;;;;;;;6.72;5.57;;;;;;;;;;5106841;28;20032;-58
2023/09/17 07:19:16;;;;;;;8.55;6.00;;;;;;;;;;5106210;28;20067;-58
2023/09/17 07:21:42;;;;;;;8.98;5.47;;;;;;;;;;5106516;28;20051;-57
2023/09/17 07:24:09;;;;;;;7.85;5.68;;;;;;;;;;5106200;28;20113;-57
2023/09/17 07:26:35;;;;;;;8.32;5.55;;;;;;;;;;5105333;28;20031;-57
2023/09/17 07:29:03;;;;;;;12.23;5.90;;;;;;;;;;5105552;28;20035;-58
2023/09/17 07:31:29;;;;;;;7.10;5.60;;;;;;;;;;5106507;28;20028;-57
2023/09/17 07:33:56;;;;;;;7.18;5.38;;;;;;;;;;5105583;28;20506;-57
2023/09/17 07:36:22;;;;;;;8.38;5.53;;;;;;;;;;5088116;28;20402;-58
2023/09/17 07:38:48;;;;;;;6.80;5.45;;;;;;;;;;5103010;28;20499;-58
2023/09/17 07:41:14;;;;;;;7.72;5.68;;;;;;;;;;5104133;28;20031;-58
2023/09/17 07:43:41;;;;;;;9.35;4.90;;;;;;;;;;5107287;28;20038;-58
2023/09/17 07:46:11;;;;;;;7.82;5.82;;;;;;;;;;5106108;28;20028;-58
2023/09/17 07:48:37;;;;;;;8.13;5.45;;;;;;;;;;5087092;28;20035;-58
2023/09/17 07:51:04;;;;;;;9.40;5.13;;;;;;;;;;5099368;28;20032;-58
2023/09/17 07:53:30;;;;;;;6.78;5.20;;;;;;;;;;5103161;28;20035;-57
2023/09/17 07:55:56;;;;;;;8.35;5.32;;;;;;;;;;5104073;28;20058;-59
2023/09/17 07:58:23;;;;;;;11.48;5.15;;;;;;;;;;5106764;28;20039;-59
2023/09/17 08:00:49;;;;;;;8.60;5.45;;;;;;;;;;5107176;28;20039;-59
2023/09/17 08:03:18;;;;;;;8.05;4.85;;;;;;;;;;5104392;28;20035;-58
2023/09/17 08:05:49;;;;;;;8.82;5.47;;;;;;;;;;5104417;28;20047;-59
2023/09/17 08:08:15;;;;;;;6.75;4.75;;;;;;;;;;5104973;27;20406;-59
2023/09/17 08:10:42;;;;;;;6.78;5.43;;;;;;;;;;5106688;28;20401;-60
2023/09/17 08:13:08;;;;;;;7.75;5.03;;;;;;;;;;5103670;28;20031;-60
2023/09/17 08:15:35;;;;;;;8.32;5.15;;;;;;;;;;5103851;27;20043;-60
2023/09/17 08:18:01;;;;;;;7.28;5.30;;;;;;;;;;5100858;28;20051;-61
2023/09/17 08:20:28;;;;;;;7.03;5.32;;;;;;;;;;5106965;28;20035;-61
2023/09/17 08:22:54;;;;;;;8.52;5.38;;;;;;;;;;5105534;28;20039;-60
2023/09/17 08:25:40;;;;;;;7.55;5.25;;;;;;;;;;5103288;28;20062;-61
2023/09/17 08:28:27;;;;;;;7.05;5.32;;;;;;;;;;5107145;28;20039;-61
2023/09/17 08:31:14;;;;;;;8.70;5.35;;;;;;;;;;5103145;28;20054;-61
2023/09/17 08:34:03;;;;;;;8.55;5.57;;;;;;;;;;5104169;28;20043;-60
2023/09/17 08:36:37;;;;;;;11.63;5.60;;;;;;;;;;5104386;28;20040;-60
2023/09/17 08:39:06;;;;;;;11.48;5.97;;;;;;;;;;5104840;28;20508;-61
2023/09/17 08:41:36;;;;;;;9.07;5.20;;;;;;;;;;5103353;28;20040;-61
2023/09/17 08:44:05;;;;;;;6.65;4.90;;;;;;;;;;5105067;28;20046;-60
2023/09/17 08:46:32;;;;;;;7.22;5.05;;;;;;;;;;5106890;28;20038;-61
2023/09/17 08:49:00;;;;;;;8.85;5.22;;;;;;;;;;5105276;28;20035;-61
2023/09/17 08:51:30;;;;;;;8.70;5.07;;;;;;;;;;5106408;28;20034;-61
2023/09/17 08:54:10;;;;;;;8.05;4.97;;;;;;;;;;5103058;28;20055;-61
2023/09/17 08:56:43;;;;;;;9.25;6.07;;;;;;;;;;5103451;28;20058;-61
2023/09/17 08:59:12;;;;;;;7.10;5.20;;;;;;;;;;5103940;28;20519;-61
2023/09/17 09:01:46;;;;;;;7.13;4.22;;;;;;;;;;5105433;28;20036;-61
2023/09/17 09:04:14;;;;;;;6.35;4.07;;;;;;;;;;5104095;28;20035;-61
2023/09/17 09:06:43;;;;;;;7.32;4.00;;;;;;;;;;5105253;28;20031;-61
2023/09/17 09:09:09;;;;;;;6.35;3.35;;;;;;;;;;5105172;28;20043;-61
2023/09/17 09:11:36;;;;;;;7.38;3.75;;;;;;;;;;5105326;28;20028;-60
2023/09/17 09:14:04;;;;;;;8.68;4.10;;;;;;;;;;5096233;28;20040;-59
2023/09/17 09:16:33;;;;;;;9.50;3.78;;;;;;;;;;5097027;28;20047;-59
2023/09/17 09:18:59;;;;;;;10.38;3.30;;;;;;;;;;5105210;28;20422;-59
2023/09/17 09:21:28;;;;;;;5.45;3.58;;;;;;;;;;5101402;28;20039;-60
2023/09/17 09:23:58;;;;;;;10.40;3.60;;;;;;;;;;5103669;28;20042;-59
2023/09/17 09:26:36;;;;;;;9.98;3.97;;;;;;;;;;5098026;28;20044;-60
2023/09/17 09:29:04;;;;;;;8.30;3.25;;;;;;;;;;5102761;28;20056;-60
2023/09/17 09:31:31;;;;;;;11.70;3.70;;;;;;;;;;5103387;28;20390;-60
2023/09/17 09:33:59;;;;;;;7.22;3.13;;;;;;;;;;5101543;28;20061;-60
2023/09/17 09:36:34;;;;;;;6.73;3.00;;;;;;;;;;5103205;28;20044;-60
2023/09/17 09:39:01;;;;;;;10.80;3.20;;;;;;;;;;5095690;28;20035;-60
2023/09/17 09:41:29;;;;;;;11.25;3.80;;;;;;;;;;5106470;28;20038;-59
2023/09/17 09:43:56;;;;;;;11.97;3.80;;;;;;;;;;5087263;28;20031;-60
2023/09/17 09:46:24;;;;;;;8.25;3.63;;;;;;;;;;5104840;28;20278;-60
2023/09/17 09:48:51;;;;;;;9.27;3.30;;;;;;;;;;5103968;28;20028;-60
2023/09/17 09:51:18;;;;;;;12.73;3.10;;;;;;;;;;5104213;28;20735;-60
2023/09/17 09:53:45;;;;;;;10.48;3.25;;;;;;;;;;5105209;28;20028;-60
2023/09/17 09:56:11;;;;;;;14.38;3.58;;;;;;;;;;5104389;28;20040;-60
2023/09/17 09:58:39;;;;;;;8.55;2.80;;;;;;;;;;5104094;28;20050;-60
2023/09/17 10:01:06;;;;;;;11.55;3.10;;;;;;;;;;5101945;28;20047;-60
2023/09/17 10:03:33;;;;;;;8.80;3.03;;;;;;;;;;5104677;28;20046;-60
2023/09/17 10:06:09;;;;;;;10.43;3.20;;;;;;;;;;5104069;28;20059;-60
2023/09/17 10:08:39;;;;;;;7.65;3.00;;;;;;;;;;5106489;28;20031;-60
2023/09/17 10:11:07;;;;;;;10.88;3.53;;;;;;;;;;5105033;28;20095;-60
2023/09/17 10:13:33;;;;;;;9.53;3.13;;;;;;;;;;5102697;28;20071;-60
2023/09/17 10:16:02;;;;;;;8.55;3.03;;;;;;;;;;5105433;28;20415;-60
2023/09/17 10:18:30;;;;;;;5.97;2.45;;;;;;;;;;5105450;28;20035;-60
2023/09/17 10:20:57;;;;;;;8.23;2.40;;;;;;;;;;5105740;28;20032;-59
2023/09/17 10:23:24;;;;;;;7.78;2.50;;;;;;;;;;5101449;28;20312;-59
2023/09/17 10:25:52;;;;;;;5.90;2.20;;;;;;;;;;5105107;28;20039;-59
2023/09/17 10:28:19;;;;;;;8.53;2.60;;;;;;;;;;5104752;28;20640;-59
2023/09/17 10:30:46;;;;;;;9.30;3.00;;;;;;;;;;5104929;28;20054;-59
2023/09/17 10:33:14;;;;;;;6.72;2.40;;;;;;;;;;5102364;28;20046;-59
2023/09/17 10:35:43;;;;;;;5.75;2.38;;;;;;;;;;5106105;28;20042;-60
2023/09/17 10:38:09;;;;;;;;;;;;;;;;;;5103929;28;20035;-60
2023/09/17 10:40:36;;;;;;;12.45;3.00;;;;;;;;;;5106495;28;19917;-60
2023/09/17 10:43:06;;;;;;;10.95;2.67;;;;;;;;;;5088043;28;20039;-60
2023/09/17 10:45:34;;;;;;;7.63;2.90;;;;;;;;;;5100660;28;20048;-60
2023/09/17 10:48:05;;;;;;;9.82;2.88;;;;;;;;;;5103082;28;20040;-60
2023/09/17 10:50:34;;;;;;;11.50;2.95;;;;;;;;;;5107788;28;20051;-60
2023/09/17 10:53:00;;;;;;;7.93;2.40;;;;;;;;;;5105214;28;20052;-60
2023/09/17 10:55:30;;;;;;;13.70;3.08;;;;;;;;;;5109760;28;20490;-60
2023/09/17 10:58:13;;;;;;;7.45;2.60;;;;;;;;;;5107568;28;20058;-60
2023/09/17 11:00:42;;;;;;;9.35;2.58;;;;;;;;;;5104295;28;20050;-60
2023/09/17 11:03:12;;;;;;;7.13;2.63;;;;;;;;;;5105424;28;20035;-60
2023/09/17 11:05:39;;;;;;;9.25;3.20;;;;;;;;;;5088701;28;20039;-60
2023/09/17 11:08:08;;;;;;;8.55;2.70;;;;;;;;;;5106241;28;20027;-60
2023/09/17 11:10:41;;;;;;;9.75;3.88;;;;;;;;;;5087709;28;20047;-60
2023/09/17 11:13:14;;;;;;;7.47;2.88;;;;;;;;;;5105749;28;20040;-60
2023/09/17 11:15:43;;;;;;;6.25;2.45;;;;;;;;;;5107661;28;20035;-60
2023/09/17 11:18:10;;;;;;;8.18;3.03;;;;;;;;;;5095381;28;20040;-60
2023/09/17 11:21:09;;;;;;;7.00;2.53;;;;;;;;;;5106362;28;20395;-60
2023/09/17 11:23:43;;;;;;;8.05;2.10;;;;;;;;;;5060355;28;20046;-60
2023/09/17 11:26:26;;;;;;;7.43;2.70;;;;;;;;;;5089002;28;20027;-60
2023/09/17 11:28:57;;;;;;;6.32;2.47;;;;;;;;;;5101625;28;20507;-60
2023/09/17 11:31:27;;;;;;;7.05;2.30;;;;;;;;;;5106264;28;20043;-60
2023/09/17 11:33:54;;;;;;;5.45;2.65;;;;;;;;;;5108561;28;20035;-61
2023/09/17 11:36:21;;;;;;;8.02;4.00;;;;;;;;;;5105380;28;20046;-61
2023/09/17 11:38:47;;;;;;;7.65;2.03;;;;;;;;;;5106546;28;20082;-60
2023/09/17 11:41:15;;;;;;;4.28;2.20;;;;;;;;;;5106576;28;20062;-60
2023/09/17 11:43:48;;;;;;;7.03;2.00;;;;;;;;;;5105290;28;20028;-60
2023/09/17 11:46:15;;;;;;;5.85;1.75;;;;;;;;;;5107280;28;20379;-60
2023/09/17 11:48:41;;;;;;;8.93;2.13;;;;;;;;;;5106770;28;20479;-59
2023/09/17 11:51:28;;;;;;;5.15;1.80;;;;;;;;;;5106198;28;20027;-59
2023/09/17 11:54:01;;;;;;;5.97;1.92;;;;;;;;;;5103545;28;20103;-59
2023/09/17 11:56:32;;;;;;;7.15;2.03;;;;;;;;;;5100080;28;20051;-60
2023/09/17 11:59:02;;;;;;;9.68;1.95;;;;;;;;;;5108381;28;20054;-60
2023/09/17 12:01:33;;;;;;;5.53;1.90;;;;;;;;;;5082384;28;20502;-60
2023/09/17 12:04:04;;;;;;;7.32;2.20;;;;;;;;;;5104732;28;20056;-59
2023/09/17 12:06:31;;;;;;;4.97;2.10;;;;;;;;;;5102096;28;20047;-60
2023/09/17 12:09:00;;;;;;;6.57;1.58;;;;;;;;;;5104263;28;20031;-59
2023/09/17 12:11:26;;;;;;;4.32;1.60;;;;;;;;;;5102621;28;20043;-60
2023/09/17 12:13:53;;;;;;;5.45;1.80;;;;;;;;;;5105085;28;20043;-60
2023/09/17 12:16:25;;;;;;;5.05;1.80;;;;;;;;;;5108172;28;20032;-60
2023/09/17 12:18:55;;;;;;;5.10;2.00;;;;;;;;;;5107603;28;20024;-60
2023/09/17 12:21:22;;;;;;;8.40;1.90;;;;;;;;;;5085331;28;20422;-60
2023/09/17 12:23:57;;;;;;;5.45;1.90;;;;;;;;;;5105662;28;20047;-60
2023/09/17 12:26:34;;;;;;;3.67;1.58;;;;;;;;;;5106036;28;20044;-62
2023/09/17 12:29:00;;;;;;;8.75;1.75;;;;;;;;;;5104697;28;20035;-60
2023/09/17 12:31:26;;;;;;;6.90;1.90;;;;;;;;;;5102405;28;20039;-60
2023/09/17 12:33:53;;;;;;;9.23;2.03;;;;;;;;;;5100911;28;20419;-60
2023/09/17 12:36:19;;;;;;;5.78;1.52;;;;;;;;;;5106374;28;20029;-60
2023/09/17 12:38:45;;;;;;;4.05;1.50;;;;;;;;;;5106812;28;20040;-60
2023/09/17 12:41:12;;;;;;;6.10;1.60;;;;;;;;;;5103926;28;20411;-59
2023/09/17 12:43:39;;;;;;;6.40;1.50;;;;;;;;;;5104212;28;20050;-60
2023/09/17 12:46:06;;;;;;;3.88;1.48;;;;;;;;;;5086208;28;20043;-60
2023/09/17 12:48:34;;;;;;;5.78;1.58;;;;;;;;;;5088300;28;20036;-60
2023/09/17 12:51:00;;;;;;;5.57;1.50;;;;;;;;;;5102285;28;20419;-60
2023/09/17 12:53:26;;;;;;;8.20;1.65;;;;;;;;;;5102038;28;20518;-60
2023/09/17 12:55:57;;;;;;;4.10;1.52;;;;;;;;;;5104990;28;20463;-60
2023/09/17 12:58:23;;;;;;;6.13;1.67;;;;;;;;;;5105442;28;20027;-60
2023/09/17 13:00:49;;;;;;;4.60;1.67;;;;;;;;;;5103600;28;20028;-60
2023/09/17 13:03:15;;;;;;;5.32;1.70;;;;;;;;;;5101133;28;20047;-61
2023/09/17 13:05:41;;;;;;;6.80;2.47;;;;;;;;;;5104485;28;20032;-61
2023/09/17 13:08:08;;;;;;;4.82;1.50;;;;;;;;;;5105920;28;20031;-61
2023/09/17 13:10:36;;;;;;;5.78;1.70;;;;;;;;;;5086287;28;20533;-61
2023/09/17 13:13:04;;;;;;;7.55;2.42;;;;;;;;;;5098647;28;20055;-61
2023/09/17 13:15:31;;;;;;;5.80;2.13;;;;;;;;;;5102840;28;20402;-61
2023/09/17 13:17:59;;;;;;;7.50;2.00;;;;;;;;;;5102887;28;20032;-60
2023/09/17 13:20:27;;;;;;;4.60;1.95;;;;;;;;;;5101631;28;20051;-60
2023/09/17 13:22:53;;;;;;;6.07;2.00;;;;;;;;;;5104969;28;20044;-60
2023/09/17 13:25:20;;;;;;;7.45;2.13;;;;;;;;;;5084760;28;20031;-60
2023/09/17 13:27:46;;;;;;;6.18;2.60;;;;;;;;;;5106735;28;20043;-60
2023/09/17 13:30:16;;;;;;;4.70;2.17;;;;;;;;;;5104056;28;20031;-60
2023/09/17 13:32:42;;;;;;;4.07;1.95;;;;;;;;;;5103521;28;20044;-60
2023/09/17 13:35:10;;;;;;;5.85;2.10;;;;;;;;;;5101499;28;20034;-60
2023/09/17 13:37:38;;;;;;;;;;;;;;;;;;5107218;28;20035;-60
2023/09/17 13:40:07;;;;;;;4.13;2.10;;;;;;;;;;5086139;28;19915;-60
2023/09/17 13:42:34;;;;;;;6.97;2.28;;;;;;;;;;5106403;28;20031;-60
2023/09/17 13:45:00;;;;;;;6.78;2.03;;;;;;;;;;5102887;28;20042;-61
2023/09/17 13:47:27;;;;;;;2.58;2.00;;;;;;;;;;5105786;28;20024;-61
2023/09/17 13:49:53;;;;;;;5.07;2.38;;;;;;;;;;5103189;28;20028;-61
2023/09/17 13:52:19;;;;;;;6.68;2.33;;;;;;;;;;5103976;28;20039;-61
2023/09/17 13:54:45;;;;;;;3.65;2.28;;;;;;;;;;5103093;28;20498;-61
2023/09/17 13:57:12;;;;;;;7.43;2.60;;;;;;;;;;5104208;28;20395;-61
2023/09/17 13:59:38;;;;;;;5.53;2.47;;;;;;;;;;5104123;28;20061;-61
2023/09/17 14:02:04;;;;;;;4.72;2.33;;;;;;;;;;5103342;28;20055;-61
2023/09/17 14:04:30;;;;;;;5.32;2.13;;;;;;;;;;5105048;28;20039;-61
2023/09/17 14:06:56;;;;;;;8.63;3.28;;;;;;;;;;5104790;28;20410;-61
2023/09/17 14:09:23;;;;;;;6.45;2.60;;;;;;;;;;5103255;28;20046;-61
2023/09/17 14:11:49;;;;;;;6.55;2.10;;;;;;;;;;5088084;28;20039;-60
2023/09/17 14:14:15;;;;;;;9.18;2.25;;;;;;;;;;5107731;28;20047;-61
2023/09/17 14:16:41;;;;;;;10.77;2.72;;;;;;;;;;5091108;28;20035;-61
2023/09/17 14:19:07;;;;;;;4.50;2.40;;;;;;;;;;5109092;28;20567;-61
2023/09/17 14:21:38;;;;;;;10.32;5.40;;;;;;;;;;5106925;28;20030;-61
2023/09/17 14:24:05;;;;;;;5.88;2.72;;;;;;;;;;5108520;28;20652;-61
2023/09/17 14:26:31;;;;;;;6.05;2.55;;;;;;;;;;5104191;28;20042;-60
2023/09/17 14:28:57;;;;;;;9.02;3.08;;;;;;;;;;5110350;28;20043;-61
2023/09/17 14:31:23;;;;;;;11.52;2.72;;;;;;;;;;5108741;28;20438;-61
2023/09/17 14:33:49;;;;;;;5.90;2.20;;;;;;;;;;5108479;28;20036;-61
2023/09/17 14:36:15;;;;;;;8.95;2.80;;;;;;;;;;5103059;28;20039;-61
2023/09/17 14:38:42;;;;;;;6.78;2.80;;;;;;;;;;5110241;28;20032;-61
2023/09/17 14:41:08;;;;;;;6.90;2.60;;;;;;;;;;5106797;28;20545;-61
2023/09/17 14:43:34;;;;;;;7.40;2.72;;;;;;;;;;5107377;28;20491;-61
2023/09/17 14:46:00;;;;;;;4.80;2.83;;;;;;;;;;5107827;28;20039;-60
2023/09/17 14:48:26;;;;;;;6.05;2.20;;;;;;;;;;5089955;28;20391;-61